Hercules — D5DW2 — position and weather

sailwx.info

Track history (hours):
 
Tides and Currents Weather Stations Pressure Air Temp Water Temp Dewpoint Dewpoint Depression Visibility Wind Speed Wind Dir Waves Ship Positions

Hercules

Last reported at 2017-Sep-13 00:39 UTC. Time now 2017-Sep-20 01:50 UTC.
Position N 36°40' W 073°19'.

Length 225 m; draft 14.4 m.

Type: Cargo ship. MMSI: 636015986.

Date/timePositionNaut miles runAvg speedWind from/ knotsBaromVisibWave heightAir tempDewpointWater temp
2017-Sep-13 00:39N 36°40' W 073°19'213.0
2017-Sep-13 00:30N 36°40' W 073°22'3111.2
2017-Sep-12 21:46N 36°42' W 073°60'510.6
2017-Sep-12 21:20N 36°43' W 074°06'6410.9
2017-Sep-12 15:25N 36°49' W 075°25'510.8
2017-Sep-12 14:58N 36°49' W 075°32'510.9
2017-Sep-12 14:30N 36°48' W 075°38'710.0
2017-Sep-12 13:45N 36°50' W 075°47'2 8.3
2017-Sep-12 13:30N 36°51' W 075°49'4 7.9
2017-Sep-12 12:58N 36°53' W 075°53'4 8.3
2017-Sep-12 12:30N 36°56' W 075°57'4 7.9
2017-Sep-12 12:00N 36°57' W 076°02'5 8.6
2017-Sep-12 11:29N 36°59' W 076°07'10 7.9
2017-Sep-12 10:09N 36°58' W 076°20'1 8.1
2017-Sep-12 09:59N 36°57' W 076°22'3 4.6
2017-Sep-12 09:15N 36°58' W 076°26'0 0.0
2017-Sep-11 00:33N 36°58' W 076°26'0 1.4
2017-Sep-11 00:29N 36°58' W 076°26'2 4.5
2017-Sep-10 23:58N 36°57' W 076°23'1410.8
2017-Sep-10 22:42N 36°58' W 076°06'212.5
2017-Sep-10 22:30N 36°58' W 076°03'611.7
2017-Sep-10 22:00N 36°56' W 075°56'4 7.2
2017-Sep-10 21:30N 36°53' W 075°53'  
2017-Sep-03 16:24N 41°03' W 029°10'511.6
2017-Sep-03 16:00N 41°04' W 029°03'7011.0
2017-Sep-03 09:36N 41°13' W 027°31'110.5
2017-Sep-03 09:30N 41°13' W 027°30'2211.1
2017-Sep-03 07:31N 41°16' W 027°01'012.3
2017-Sep-03 07:29N 41°16' W 027°00'3012.0
2017-Sep-03 04:59N 41°20' W 026°20'612.5
2017-Sep-03 04:30N 41°21' W 026°12'612.7
2017-Sep-03 04:00N 41°22' W 026°04'712.6
2017-Sep-03 03:27N 41°23' W 025°55'612.6
2017-Sep-03 02:58N 41°23' W 025°47'  
Track history (hours):
 
Tides and Currents Weather Stations Pressure Air Temp Water Temp Dewpoint Dewpoint Depression Visibility Wind Speed Wind Dir Waves Ship Positions

Hercules

Last reported at 2017-Sep-13 00:39 UTC. Time now 2017-Sep-20 01:50 UTC.
Position N 36°40' W 073°19'.

Length 225 m; draft 14.4 m.

Type: Cargo ship. MMSI: 636015986.

Date/timePositionNaut miles runAvg speedWind from/ knotsBaromVisibWave heightAir tempDewpointWater temp
2017-Sep-13 00:39N 36°40' W 073°19'213.0
2017-Sep-13 00:30N 36°40' W 073°22'3111.2
2017-Sep-12 21:46N 36°42' W 073°60'510.6
2017-Sep-12 21:20N 36°43' W 074°06'6410.9
2017-Sep-12 15:25N 36°49' W 075°25'510.8
2017-Sep-12 14:58N 36°49' W 075°32'510.9
2017-Sep-12 14:30N 36°48' W 075°38'710.0
2017-Sep-12 13:45N 36°50' W 075°47'2 8.3
2017-Sep-12 13:30N 36°51' W 075°49'4 7.9
2017-Sep-12 12:58N 36°53' W 075°53'4 8.3
2017-Sep-12 12:30N 36°56' W 075°57'4 7.9
2017-Sep-12 12:00N 36°57' W 076°02'5 8.6
2017-Sep-12 11:29N 36°59' W 076°07'10 7.9
2017-Sep-12 10:09N 36°58' W 076°20'1 8.1
2017-Sep-12 09:59N 36°57' W 076°22'3 4.6
2017-Sep-12 09:15N 36°58' W 076°26'0 0.0
2017-Sep-11 00:33N 36°58' W 076°26'0 1.4
2017-Sep-11 00:29N 36°58' W 076°26'2 4.5
2017-Sep-10 23:58N 36°57' W 076°23'1410.8
2017-Sep-10 22:42N 36°58' W 076°06'212.5
2017-Sep-10 22:30N 36°58' W 076°03'611.7
2017-Sep-10 22:00N 36°56' W 075°56'4 7.2
2017-Sep-10 21:30N 36°53' W 075°53'  
2017-Sep-03 16:24N 41°03' W 029°10'511.6
2017-Sep-03 16:00N 41°04' W 029°03'7011.0
2017-Sep-03 09:36N 41°13' W 027°31'110.5
2017-Sep-03 09:30N 41°13' W 027°30'2211.1
2017-Sep-03 07:31N 41°16' W 027°01'012.3
2017-Sep-03 07:29N 41°16' W 027°00'3012.0
2017-Sep-03 04:59N 41°20' W 026°20'612.5
2017-Sep-03 04:30N 41°21' W 026°12'612.7
2017-Sep-03 04:00N 41°22' W 026°04'712.6
2017-Sep-03 03:27N 41°23' W 025°55'612.6
2017-Sep-03 02:58N 41°23' W 025°47'  

Dump ship's entire track history